sensor_id;sensor_type;location;lat;lon;timestamp;temperature;humidity
61591;DHT22;57639;52.410;-1.966;2023-05-02T00:01:19;16.70;57.00
61591;DHT22;57639;52.410;-1.966;2023-05-02T00:04:28;16.70;57.10
61591;DHT22;57639;52.410;-1.966;2023-05-02T00:07:35;16.70;57.10
61591;DHT22;57639;52.410;-1.966;2023-05-02T00:10:42;16.60;57.10
61591;DHT22;57639;52.410;-1.966;2023-05-02T00:13:49;16.60;57.00
61591;DHT22;57639;52.410;-1.966;2023-05-02T00:16:55;16.60;57.00
61591;DHT22;57639;52.410;-1.966;2023-05-02T00:20:05;16.70;57.00
61591;DHT22;57639;52.410;-1.966;2023-05-02T00:23:11;16.60;57.00
61591;DHT22;57639;52.410;-1.966;2023-05-02T00:26:17;16.60;57.00
61591;DHT22;57639;52.410;-1.966;2023-05-02T00:29:23;16.60;57.10
61591;DHT22;57639;52.410;-1.966;2023-05-02T00:32:29;16.60;57.10
61591;DHT22;57639;52.410;-1.966;2023-05-02T00:35:39;16.60;57.10
61591;DHT22;57639;52.410;-1.966;2023-05-02T00:38:45;16.60;57.10
61591;DHT22;57639;52.410;-1.966;2023-05-02T00:41:55;16.60;57.10
61591;DHT22;57639;52.410;-1.966;2023-05-02T00:45:02;16.60;56.40
61591;DHT22;57639;52.410;-1.966;2023-05-02T00:48:10;16.60;56.40
61591;DHT22;57639;52.410;-1.966;2023-05-02T00:51:19;16.60;56.40
61591;DHT22;57639;52.410;-1.966;2023-05-02T00:54:27;16.60;55.80
61591;DHT22;57639;52.410;-1.966;2023-05-02T00:57:34;16.60;55.80
61591;DHT22;57639;52.410;-1.966;2023-05-02T01:00:50;16.60;56.00
61591;DHT22;57639;52.410;-1.966;2023-05-02T01:04:10;16.60;55.70
61591;DHT22;57639;52.410;-1.966;2023-05-02T01:07:39;16.60;55.50
61591;DHT22;57639;52.410;-1.966;2023-05-02T01:10:53;16.60;55.70
61591;DHT22;57639;52.410;-1.966;2023-05-02T01:14:05;16.60;56.00
61591;DHT22;57639;52.410;-1.966;2023-05-02T01:17:14;16.60;55.70
61591;DHT22;57639;52.410;-1.966;2023-05-02T01:20:25;16.60;55.80
61591;DHT22;57639;52.410;-1.966;2023-05-02T01:23:42;16.60;55.70
61591;DHT22;57639;52.410;-1.966;2023-05-02T01:27:06;16.60;55.40
61591;DHT22;57639;52.410;-1.966;2023-05-02T01:30:20;16.60;55.20
61591;DHT22;57639;52.410;-1.966;2023-05-02T01:33:28;16.60;55.50
61591;DHT22;57639;52.410;-1.966;2023-05-02T01:36:36;16.60;56.00
61591;DHT22;57639;52.410;-1.966;2023-05-02T01:39:45;16.60;55.60
61591;DHT22;57639;52.410;-1.966;2023-05-02T01:42:54;16.60;55.60
61591;DHT22;57639;52.410;-1.966;2023-05-02T01:46:06;16.60;55.30
61591;DHT22;57639;52.410;-1.966;2023-05-02T01:49:14;16.60;55.70
61591;DHT22;57639;52.410;-1.966;2023-05-02T01:52:22;16.60;55.80
61591;DHT22;57639;52.410;-1.966;2023-05-02T01:55:31;16.50;56.10
61591;DHT22;57639;52.410;-1.966;2023-05-02T01:58:41;16.50;56.50
61591;DHT22;57639;52.410;-1.966;2023-05-02T02:01:51;16.50;56.60
61591;DHT22;57639;52.410;-1.966;2023-05-02T02:04:59;16.50;56.50
61591;DHT22;57639;52.410;-1.966;2023-05-02T02:08:06;16.50;56.10
61591;DHT22;57639;52.410;-1.966;2023-05-02T02:11:16;16.50;56.30
61591;DHT22;57639;52.410;-1.966;2023-05-02T02:14:30;16.50;56.30
61591;DHT22;57639;52.410;-1.966;2023-05-02T02:17:45;16.40;56.10
61591;DHT22;57639;52.410;-1.966;2023-05-02T02:20:53;16.40;56.40
61591;DHT22;57639;52.410;-1.966;2023-05-02T02:24:01;16.40;56.10
61591;DHT22;57639;52.410;-1.966;2023-05-02T02:27:08;16.40;56.50
61591;DHT22;57639;52.410;-1.966;2023-05-02T02:30:16;16.40;56.60
61591;DHT22;57639;52.410;-1.966;2023-05-02T02:33:29;16.40;56.50
61591;DHT22;57639;52.410;-1.966;2023-05-02T02:36:41;16.40;56.70
61591;DHT22;57639;52.410;-1.966;2023-05-02T02:39:54;16.40;56.80
61591;DHT22;57639;52.410;-1.966;2023-05-02T02:43:11;16.40;56.90
61591;DHT22;57639;52.410;-1.966;2023-05-02T02:46:28;16.30;56.90
61591;DHT22;57639;52.410;-1.966;2023-05-02T02:49:46;16.30;56.90
61591;DHT22;57639;52.410;-1.966;2023-05-02T02:52:55;16.30;56.90
61591;DHT22;57639;52.410;-1.966;2023-05-02T02:56:05;16.30;56.90
61591;DHT22;57639;52.410;-1.966;2023-05-02T02:59:20;16.30;56.90
61591;DHT22;57639;52.410;-1.966;2023-05-02T03:02:31;16.30;56.90
61591;DHT22;57639;52.410;-1.966;2023-05-02T03:05:40;16.30;56.90
61591;DHT22;57639;52.410;-1.966;2023-05-02T03:08:47;16.30;56.50
61591;DHT22;57639;52.410;-1.966;2023-05-02T03:11:53;16.30;56.60
61591;DHT22;57639;52.410;-1.966;2023-05-02T03:15:11;16.30;56.40
61591;DHT22;57639;52.410;-1.966;2023-05-02T03:18:19;16.30;56.50
61591;DHT22;57639;52.410;-1.966;2023-05-02T03:21:29;16.30;56.80
61591;DHT22;57639;52.410;-1.966;2023-05-02T03:24:36;16.30;56.50
61591;DHT22;57639;52.410;-1.966;2023-05-02T03:27:43;16.30;56.00
61591;DHT22;57639;52.410;-1.966;2023-05-02T03:30:49;16.30;56.70
61591;DHT22;57639;52.410;-1.966;2023-05-02T03:33:56;16.30;56.70
61591;DHT22;57639;52.410;-1.966;2023-05-02T03:37:05;16.30;56.80
61591;DHT22;57639;52.410;-1.966;2023-05-02T03:40:11;16.30;56.60
61591;DHT22;57639;52.410;-1.966;2023-05-02T03:43:18;16.30;56.20
61591;DHT22;57639;52.410;-1.966;2023-05-02T03:46:24;16.30;56.60
61591;DHT22;57639;52.410;-1.966;2023-05-02T03:49:33;16.30;56.70
61591;DHT22;57639;52.410;-1.966;2023-05-02T03:52:42;16.30;56.70
61591;DHT22;57639;52.410;-1.966;2023-05-02T03:55:48;16.30;56.80
61591;DHT22;57639;52.410;-1.966;2023-05-02T03:58:55;16.30;56.80
61591;DHT22;57639;52.410;-1.966;2023-05-02T04:02:01;16.30;56.80
61591;DHT22;57639;52.410;-1.966;2023-05-02T04:05:08;16.30;56.80
61591;DHT22;57639;52.410;-1.966;2023-05-02T04:08:17;16.20;56.80
61591;DHT22;57639;52.410;-1.966;2023-05-02T04:11:24;16.20;56.90
61591;DHT22;57639;52.410;-1.966;2023-05-02T04:14:31;16.20;56.90
61591;DHT22;57639;52.410;-1.966;2023-05-02T04:17:37;16.10;56.90
61591;DHT22;57639;52.410;-1.966;2023-05-02T04:20:44;16.10;57.00
61591;DHT22;57639;52.410;-1.966;2023-05-02T04:23:53;16.10;57.00
61591;DHT22;57639;52.410;-1.966;2023-05-02T04:26:59;16.10;57.10
61591;DHT22;57639;52.410;-1.966;2023-05-02T04:30:07;16.10;57.20
61591;DHT22;57639;52.410;-1.966;2023-05-02T04:33:13;16.10;57.20
61591;DHT22;57639;52.410;-1.966;2023-05-02T04:36:20;16.10;57.20
61591;DHT22;57639;52.410;-1.966;2023-05-02T04:39:29;16.10;57.30
61591;DHT22;57639;52.410;-1.966;2023-05-02T04:42:35;16.10;57.30
61591;DHT22;57639;52.410;-1.966;2023-05-02T04:45:41;16.10;57.30
61591;DHT22;57639;52.410;-1.966;2023-05-02T04:48:48;16.10;57.40
61591;DHT22;57639;52.410;-1.966;2023-05-02T04:51:54;16.00;57.40
61591;DHT22;57639;52.410;-1.966;2023-05-02T04:55:04;16.00;57.50
61591;DHT22;57639;52.410;-1.966;2023-05-02T04:58:10;16.00;57.60
61591;DHT22;57639;52.410;-1.966;2023-05-02T05:01:17;16.00;57.60
61591;DHT22;57639;52.410;-1.966;2023-05-02T05:04:24;16.00;57.60
61591;DHT22;57639;52.410;-1.966;2023-05-02T05:07:30;16.00;57.60
61591;DHT22;57639;52.410;-1.966;2023-05-02T05:10:39;16.00;57.60
61591;DHT22;57639;52.410;-1.966;2023-05-02T05:13:45;16.00;57.70
61591;DHT22;57639;52.410;-1.966;2023-05-02T05:16:52;16.00;57.70
61591;DHT22;57639;52.410;-1.966;2023-05-02T05:19:58;16.00;57.60
61591;DHT22;57639;52.410;-1.966;2023-05-02T05:23:05;16.00;57.60
61591;DHT22;57639;52.410;-1.966;2023-05-02T05:26:15;16.00;57.60
61591;DHT22;57639;52.410;-1.966;2023-05-02T05:29:23;16.00;57.60
61591;DHT22;57639;52.410;-1.966;2023-05-02T05:32:29;16.00;57.50
61591;DHT22;57639;52.410;-1.966;2023-05-02T05:35:35;16.00;57.50
61591;DHT22;57639;52.410;-1.966;2023-05-02T05:38:41;16.10;57.40
61591;DHT22;57639;52.410;-1.966;2023-05-02T05:41:51;16.10;57.30
61591;DHT22;57639;52.410;-1.966;2023-05-02T05:44:57;16.10;57.30
61591;DHT22;57639;52.410;-1.966;2023-05-02T05:48:04;16.10;57.30
61591;DHT22;57639;52.410;-1.966;2023-05-02T05:51:10;16.10;57.30
61591;DHT22;57639;52.410;-1.966;2023-05-02T05:54:17;16.10;57.30
61591;DHT22;57639;52.410;-1.966;2023-05-02T05:57:26;16.10;57.30
61591;DHT22;57639;52.410;-1.966;2023-05-02T06:00:33;16.10;57.30
61591;DHT22;57639;52.410;-1.966;2023-05-02T06:03:42;16.10;57.30
61591;DHT22;57639;52.410;-1.966;2023-05-02T06:06:49;16.10;57.40
61591;DHT22;57639;52.410;-1.966;2023-05-02T06:09:56;16.00;57.40
61591;DHT22;57639;52.410;-1.966;2023-05-02T06:13:05;16.10;57.50
61591;DHT22;57639;52.410;-1.966;2023-05-02T06:16:12;16.10;57.20
61591;DHT22;57639;52.410;-1.966;2023-05-02T06:19:18;16.10;57.00
61591;DHT22;57639;52.410;-1.966;2023-05-02T06:22:24;16.20;56.90
61591;DHT22;57639;52.410;-1.966;2023-05-02T06:25:30;16.40;56.50
61591;DHT22;57639;52.410;-1.966;2023-05-02T06:28:40;16.60;56.00
61591;DHT22;57639;52.410;-1.966;2023-05-02T06:31:46;16.80;55.60
61591;DHT22;57639;52.410;-1.966;2023-05-02T06:34:53;17.10;55.20
61591;DHT22;57639;52.410;-1.966;2023-05-02T06:37:59;17.30;54.80
61591;DHT22;57639;52.410;-1.966;2023-05-02T06:41:05;17.50;54.40
61591;DHT22;57639;52.410;-1.966;2023-05-02T06:44:14;17.60;54.20
61591;DHT22;57639;52.410;-1.966;2023-05-02T06:47:21;17.80;53.80
61591;DHT22;57639;52.410;-1.966;2023-05-02T06:50:28;18.00;53.40
61591;DHT22;57639;52.410;-1.966;2023-05-02T06:53:34;18.10;53.10
61591;DHT22;57639;52.410;-1.966;2023-05-02T06:56:40;18.20;53.00
61591;DHT22;57639;52.410;-1.966;2023-05-02T06:59:49;18.30;52.80
61591;DHT22;57639;52.410;-1.966;2023-05-02T07:02:56;18.50;52.70
61591;DHT22;57639;52.410;-1.966;2023-05-02T07:06:02;18.60;52.70
61591;DHT22;57639;52.410;-1.966;2023-05-02T07:09:09;18.70;52.20
61591;DHT22;57639;52.410;-1.966;2023-05-02T07:12:15;18.70;52.40
61591;DHT22;57639;52.410;-1.966;2023-05-02T07:15:26;18.70;52.60
61591;DHT22;57639;52.410;-1.966;2023-05-02T07:18:32;18.70;52.60
61591;DHT22;57639;52.410;-1.966;2023-05-02T07:21:38;18.70;52.30
61591;DHT22;57639;52.410;-1.966;2023-05-02T07:24:45;18.60;52.40
61591;DHT22;57639;52.410;-1.966;2023-05-02T07:27:51;18.60;52.70
61591;DHT22;57639;52.410;-1.966;2023-05-02T07:31:00;18.60;52.80
61591;DHT22;57639;52.410;-1.966;2023-05-02T07:34:06;18.60;52.20
61591;DHT22;57639;52.410;-1.966;2023-05-02T07:37:14;18.50;52.20
61591;DHT22;57639;52.410;-1.966;2023-05-02T07:40:20;18.40;52.60
61591;DHT22;57639;52.410;-1.966;2023-05-02T07:43:27;18.40;53.00
61591;DHT22;57639;52.410;-1.966;2023-05-02T07:46:36;18.40;53.00
61591;DHT22;57639;52.410;-1.966;2023-05-02T07:49:42;18.30;52.90
61591;DHT22;57639;52.410;-1.966;2023-05-02T07:52:52;18.30;53.00
61591;DHT22;57639;52.410;-1.966;2023-05-02T07:55:58;18.20;52.90
61591;DHT22;57639;52.410;-1.966;2023-05-02T07:59:06;18.20;53.20
61591;DHT22;57639;52.410;-1.966;2023-05-02T08:02:16;18.10;53.00
61591;DHT22;57639;52.410;-1.966;2023-05-02T08:05:23;18.10;53.30
61591;DHT22;57639;52.410;-1.966;2023-05-02T08:08:30;18.10;53.40
61591;DHT22;57639;52.410;-1.966;2023-05-02T08:11:36;18.00;53.60
61591;DHT22;57639;52.410;-1.966;2023-05-02T08:14:42;18.00;53.80
61591;DHT22;57639;52.410;-1.966;2023-05-02T08:17:51;17.90;54.00
61591;DHT22;57639;52.410;-1.966;2023-05-02T08:20:57;17.80;54.10
61591;DHT22;57639;52.410;-1.966;2023-05-02T08:24:04;17.80;54.40
61591;DHT22;57639;52.410;-1.966;2023-05-02T08:27:10;17.70;54.70
61591;DHT22;57639;52.410;-1.966;2023-05-02T08:30:17;17.70;54.80
61591;DHT22;57639;52.410;-1.966;2023-05-02T08:40:36;17.80;55.60
61591;DHT22;57639;52.410;-1.966;2023-05-02T08:43:43;17.80;56.10
61591;DHT22;57639;52.410;-1.966;2023-05-02T08:46:50;17.80;56.50
61591;DHT22;57639;52.410;-1.966;2023-05-02T08:53:46;17.80;56.80
61591;DHT22;57639;52.410;-1.966;2023-05-02T08:57:25;17.80;56.90
61591;DHT22;57639;52.410;-1.966;2023-05-02T09:00:37;17.80;57.00
61591;DHT22;57639;52.410;-1.966;2023-05-02T09:03:45;17.80;56.80
61591;DHT22;57639;52.410;-1.966;2023-05-02T09:06:52;17.80;56.90
61591;DHT22;57639;52.410;-1.966;2023-05-02T09:17:23;17.70;56.70
61591;DHT22;57639;52.410;-1.966;2023-05-02T09:24:19;17.60;56.30
61591;DHT22;57639;52.410;-1.966;2023-05-02T09:27:50;17.60;56.20
61591;DHT22;57639;52.410;-1.966;2023-05-02T09:31:08;17.50;56.70
61591;DHT22;57639;52.410;-1.966;2023-05-02T09:37:34;17.50;56.70
61591;DHT22;57639;52.410;-1.966;2023-05-02T09:40:52;17.50;56.80
61591;DHT22;57639;52.410;-1.966;2023-05-02T09:44:00;17.50;57.20
61591;DHT22;57639;52.410;-1.966;2023-05-02T09:47:09;17.50;57.10
61591;DHT22;57639;52.410;-1.966;2023-05-02T09:50:34;17.50;57.30
61591;DHT22;57639;52.410;-1.966;2023-05-02T10:04:59;17.50;57.10
61591;DHT22;57639;52.410;-1.966;2023-05-02T10:08:07;17.40;57.10
61591;DHT22;57639;52.410;-1.966;2023-05-02T10:15:50;17.30;57.10
